sensor_id;sensor_type;location;lat;lon;timestamp;P1;durP1;ratioP1;P2;durP2;ratioP2
50379;SDS011;37474;59.468;18.040;2023-04-28T00:00:01;1.40;;;0.47;;
50379;SDS011;37474;59.468;18.040;2023-04-28T00:02:31;0.80;;;0.38;;
50379;SDS011;37474;59.468;18.040;2023-04-28T00:04:59;0.37;;;0.37;;
50379;SDS011;37474;59.468;18.040;2023-04-28T00:07:29;0.57;;;0.30;;
50379;SDS011;37474;59.468;18.040;2023-04-28T00:09:57;0.40;;;0.40;;
50379;SDS011;37474;59.468;18.040;2023-04-28T00:12:25;0.67;;;0.50;;
50379;SDS011;37474;59.468;18.040;2023-04-28T00:14:53;1.10;;;0.40;;
50379;SDS011;37474;59.468;18.040;2023-04-28T00:17:21;0.53;;;0.40;;
50379;SDS011;37474;59.468;18.040;2023-04-28T00:19:49;0.97;;;0.43;;
50379;SDS011;37474;59.468;18.040;2023-04-28T00:22:18;2.13;;;0.40;;
50379;SDS011;37474;59.468;18.040;2023-04-28T00:24:47;0.40;;;0.37;;
50379;SDS011;37474;59.468;18.040;2023-04-28T00:27:15;0.50;;;0.40;;
50379;SDS011;37474;59.468;18.040;2023-04-28T00:29:43;0.60;;;0.40;;
50379;SDS011;37474;59.468;18.040;2023-04-28T00:32:12;0.77;;;0.50;;
50379;SDS011;37474;59.468;18.040;2023-04-28T00:34:40;0.90;;;0.40;;
50379;SDS011;37474;59.468;18.040;2023-04-28T00:37:08;0.90;;;0.50;;
50379;SDS011;37474;59.468;18.040;2023-04-28T00:39:36;1.23;;;0.33;;
50379;SDS011;37474;59.468;18.040;2023-04-28T00:42:06;0.50;;;0.50;;
50379;SDS011;37474;59.468;18.040;2023-04-28T00:44:34;0.80;;;0.60;;
50379;SDS011;37474;59.468;18.040;2023-04-28T00:47:06;0.60;;;0.50;;
50379;SDS011;37474;59.468;18.040;2023-04-28T00:49:35;0.50;;;0.40;;
50379;SDS011;37474;59.468;18.040;2023-04-28T00:52:05;0.37;;;0.33;;
50379;SDS011;37474;59.468;18.040;2023-04-28T00:54:33;1.00;;;0.40;;
50379;SDS011;37474;59.468;18.040;2023-04-28T00:57:01;0.70;;;0.40;;
50379;SDS011;37474;59.468;18.040;2023-04-28T00:59:31;0.80;;;0.40;;
50379;SDS011;37474;59.468;18.040;2023-04-28T01:01:59;0.87;;;0.50;;
50379;SDS011;37474;59.468;18.040;2023-04-28T01:04:31;0.73;;;0.43;;
50379;SDS011;37474;59.468;18.040;2023-04-28T01:07:00;0.63;;;0.47;;
50379;SDS011;37474;59.468;18.040;2023-04-28T01:09:31;1.73;;;0.70;;
50379;SDS011;37474;59.468;18.040;2023-04-28T01:12:01;0.75;;;0.75;;
50379;SDS011;37474;59.468;18.040;2023-04-28T01:14:29;0.87;;;0.50;;
50379;SDS011;37474;59.468;18.040;2023-04-28T01:16:59;1.73;;;0.80;;
50379;SDS011;37474;59.468;18.040;2023-04-28T01:19:27;0.65;;;0.50;;
50379;SDS011;37474;59.468;18.040;2023-04-28T01:21:55;1.00;;;0.60;;
50379;SDS011;37474;59.468;18.040;2023-04-28T01:24:25;1.70;;;0.60;;
50379;SDS011;37474;59.468;18.040;2023-04-28T01:26:53;0.70;;;0.60;;
50379;SDS011;37474;59.468;18.040;2023-04-28T01:29:21;1.43;;;0.53;;
50379;SDS011;37474;59.468;18.040;2023-04-28T01:31:49;0.87;;;0.70;;
50379;SDS011;37474;59.468;18.040;2023-04-28T01:34:17;0.70;;;0.50;;
50379;SDS011;37474;59.468;18.040;2023-04-28T01:36:45;0.73;;;0.50;;
50379;SDS011;37474;59.468;18.040;2023-04-28T01:39:13;2.50;;;0.60;;
50379;SDS011;37474;59.468;18.040;2023-04-28T01:41:43;1.17;;;0.60;;
50379;SDS011;37474;59.468;18.040;2023-04-28T01:44:11;0.90;;;0.80;;
50379;SDS011;37474;59.468;18.040;2023-04-28T01:46:40;1.07;;;0.70;;
50379;SDS011;37474;59.468;18.040;2023-04-28T01:49:08;1.13;;;0.70;;
50379;SDS011;37474;59.468;18.040;2023-04-28T01:51:36;0.80;;;0.60;;
50379;SDS011;37474;59.468;18.040;2023-04-28T01:54:06;0.77;;;0.60;;
50379;SDS011;37474;59.468;18.040;2023-04-28T01:56:34;1.13;;;0.80;;
50379;SDS011;37474;59.468;18.040;2023-04-28T01:59:04;0.85;;;0.73;;
50379;SDS011;37474;59.468;18.040;2023-04-28T02:01:32;2.43;;;0.80;;
50379;SDS011;37474;59.468;18.040;2023-04-28T02:04:01;0.60;;;0.50;;
50379;SDS011;37474;59.468;18.040;2023-04-28T02:06:29;1.07;;;0.67;;
50379;SDS011;37474;59.468;18.040;2023-04-28T02:08:57;0.90;;;0.60;;
50379;SDS011;37474;59.468;18.040;2023-04-28T02:11:25;1.30;;;0.70;;
50379;SDS011;37474;59.468;18.040;2023-04-28T02:13:53;2.27;;;0.70;;
50379;SDS011;37474;59.468;18.040;2023-04-28T02:16:22;1.13;;;0.70;;
50379;SDS011;37474;59.468;18.040;2023-04-28T02:18:50;3.20;;;0.87;;
50379;SDS011;37474;59.468;18.040;2023-04-28T02:21:18;0.67;;;0.67;;
50379;SDS011;37474;59.468;18.040;2023-04-28T02:23:46;1.20;;;0.80;;
50379;SDS011;37474;59.468;18.040;2023-04-28T02:26:15;0.50;;;0.50;;
50379;SDS011;37474;59.468;18.040;2023-04-28T02:28:45;0.70;;;0.50;;
50379;SDS011;37474;59.468;18.040;2023-04-28T02:31:14;1.00;;;0.53;;
50379;SDS011;37474;59.468;18.040;2023-04-28T02:33:43;2.50;;;0.73;;
50379;SDS011;37474;59.468;18.040;2023-04-28T02:36:12;3.00;;;0.73;;
50379;SDS011;37474;59.468;18.040;2023-04-28T02:38:40;1.10;;;0.70;;
50379;SDS011;37474;59.468;18.040;2023-04-28T02:41:10;1.97;;;0.60;;
50379;SDS011;37474;59.468;18.040;2023-04-28T02:43:40;0.87;;;0.67;;
50379;SDS011;37474;59.468;18.040;2023-04-28T02:46:08;2.73;;;0.60;;
50379;SDS011;37474;59.468;18.040;2023-04-28T02:48:36;1.03;;;0.63;;
50379;SDS011;37474;59.468;18.040;2023-04-28T02:51:06;1.73;;;0.70;;
50379;SDS011;37474;59.468;18.040;2023-04-28T02:53:34;1.20;;;0.67;;
50379;SDS011;37474;59.468;18.040;2023-04-28T02:56:02;2.07;;;0.70;;
50379;SDS011;37474;59.468;18.040;2023-04-28T02:58:30;2.50;;;0.77;;
50379;SDS011;37474;59.468;18.040;2023-04-28T03:00:58;1.30;;;1.00;;
50379;SDS011;37474;59.468;18.040;2023-04-28T03:03:27;0.97;;;0.80;;
50379;SDS011;37474;59.468;18.040;2023-04-28T03:05:55;2.90;;;1.13;;
50379;SDS011;37474;59.468;18.040;2023-04-28T03:08:24;1.83;;;0.83;;
50379;SDS011;37474;59.468;18.040;2023-04-28T03:10:52;0.80;;;0.70;;
50379;SDS011;37474;59.468;18.040;2023-04-28T03:13:21;1.27;;;1.00;;
50379;SDS011;37474;59.468;18.040;2023-04-28T03:15:49;2.40;;;0.90;;
50379;SDS011;37474;59.468;18.040;2023-04-28T03:18:17;1.63;;;1.10;;
50379;SDS011;37474;59.468;18.040;2023-04-28T03:20:45;1.00;;;0.80;;
50379;SDS011;37474;59.468;18.040;2023-04-28T03:23:13;3.00;;;0.90;;
50379;SDS011;37474;59.468;18.040;2023-04-28T03:25:43;2.57;;;1.17;;
50379;SDS011;37474;59.468;18.040;2023-04-28T03:28:11;1.35;;;0.90;;
50379;SDS011;37474;59.468;18.040;2023-04-28T03:30:42;0.97;;;0.87;;
50379;SDS011;37474;59.468;18.040;2023-04-28T03:33:10;1.70;;;0.90;;
50379;SDS011;37474;59.468;18.040;2023-04-28T03:35:38;2.13;;;1.00;;
50379;SDS011;37474;59.468;18.040;2023-04-28T03:38:06;1.13;;;0.87;;
50379;SDS011;37474;59.468;18.040;2023-04-28T03:40:34;0.97;;;0.80;;
50379;SDS011;37474;59.468;18.040;2023-04-28T03:43:03;1.00;;;0.80;;
50379;SDS011;37474;59.468;18.040;2023-04-28T03:45:31;1.30;;;0.60;;
50379;SDS011;37474;59.468;18.040;2023-04-28T03:48:00;1.57;;;0.90;;
50379;SDS011;37474;59.468;18.040;2023-04-28T03:50:28;2.33;;;1.00;;
50379;SDS011;37474;59.468;18.040;2023-04-28T03:52:56;1.23;;;0.93;;
50379;SDS011;37474;59.468;18.040;2023-04-28T03:55:24;0.93;;;0.80;;
50379;SDS011;37474;59.468;18.040;2023-04-28T03:57:52;1.43;;;0.80;;
50379;SDS011;37474;59.468;18.040;2023-04-28T04:00:22;1.83;;;1.10;;
50379;SDS011;37474;59.468;18.040;2023-04-28T04:02:50;1.05;;;0.93;;
50379;SDS011;37474;59.468;18.040;2023-04-28T04:05:18;1.07;;;0.87;;
50379;SDS011;37474;59.468;18.040;2023-04-28T04:07:46;1.80;;;0.90;;
50379;SDS011;37474;59.468;18.040;2023-04-28T04:10:14;1.33;;;0.90;;
50379;SDS011;37474;59.468;18.040;2023-04-28T04:12:42;1.13;;;0.80;;
50379;SDS011;37474;59.468;18.040;2023-04-28T04:15:11;1.10;;;0.90;;
50379;SDS011;37474;59.468;18.040;2023-04-28T04:17:40;0.80;;;0.80;;
50379;SDS011;37474;59.468;18.040;2023-04-28T04:20:09;0.77;;;0.70;;
50379;SDS011;37474;59.468;18.040;2023-04-28T04:22:37;1.93;;;0.90;;
50379;SDS011;37474;59.468;18.040;2023-04-28T04:25:06;0.80;;;0.70;;
50379;SDS011;37474;59.468;18.040;2023-04-28T04:27:34;1.30;;;0.73;;
50379;SDS011;37474;59.468;18.040;2023-04-28T04:30:02;1.07;;;0.67;;
50379;SDS011;37474;59.468;18.040;2023-04-28T04:32:31;1.13;;;0.70;;
50379;SDS011;37474;59.468;18.040;2023-04-28T04:35:01;0.70;;;0.70;;
50379;SDS011;37474;59.468;18.040;2023-04-28T04:37:29;1.87;;;0.70;;
50379;SDS011;37474;59.468;18.040;2023-04-28T04:39:57;1.03;;;0.80;;
50379;SDS011;37474;59.468;18.040;2023-04-28T04:42:25;0.87;;;0.73;;
50379;SDS011;37474;59.468;18.040;2023-04-28T04:44:53;1.03;;;0.80;;
50379;SDS011;37474;59.468;18.040;2023-04-28T04:47:21;1.20;;;0.80;;
50379;SDS011;37474;59.468;18.040;2023-04-28T04:49:51;1.73;;;0.68;;
50379;SDS011;37474;59.468;18.040;2023-04-28T04:52:20;1.47;;;0.93;;
50379;SDS011;37474;59.468;18.040;2023-04-28T04:54:48;1.02;;;0.85;;
50379;SDS011;37474;59.468;18.040;2023-04-28T04:57:17;1.37;;;0.83;;
50379;SDS011;37474;59.468;18.040;2023-04-28T04:59:46;0.70;;;0.70;;
50379;SDS011;37474;59.468;18.040;2023-04-28T05:02:14;0.97;;;0.87;;
50379;SDS011;37474;59.468;18.040;2023-04-28T05:04:42;1.40;;;1.10;;
50379;SDS011;37474;59.468;18.040;2023-04-28T05:07:13;0.97;;;0.80;;
50379;SDS011;37474;59.468;18.040;2023-04-28T05:09:49;1.63;;;0.83;;
50379;SDS011;37474;59.468;18.040;2023-04-28T05:12:17;0.90;;;0.80;;
50379;SDS011;37474;59.468;18.040;2023-04-28T05:14:45;2.50;;;0.80;;
50379;SDS011;37474;59.468;18.040;2023-04-28T05:17:13;0.70;;;0.70;;
50379;SDS011;37474;59.468;18.040;2023-04-28T05:19:41;1.83;;;0.60;;
50379;SDS011;37474;59.468;18.040;2023-04-28T05:22:10;0.70;;;0.70;;
50379;SDS011;37474;59.468;18.040;2023-04-28T05:24:38;2.53;;;1.03;;
50379;SDS011;37474;59.468;18.040;2023-04-28T05:27:07;1.30;;;0.90;;
50379;SDS011;37474;59.468;18.040;2023-04-28T05:29:36;1.87;;;0.93;;
50379;SDS011;37474;59.468;18.040;2023-04-28T05:32:04;0.80;;;0.80;;
50379;SDS011;37474;59.468;18.040;2023-04-28T05:34:32;2.17;;;0.80;;
50379;SDS011;37474;59.468;18.040;2023-04-28T05:37:00;1.00;;;0.77;;
50379;SDS011;37474;59.468;18.040;2023-04-28T05:39:28;1.20;;;1.10;;
50379;SDS011;37474;59.468;18.040;2023-04-28T05:41:56;2.20;;;0.73;;
50379;SDS011;37474;59.468;18.040;2023-04-28T05:44:26;1.27;;;1.00;;
50379;SDS011;37474;59.468;18.040;2023-04-28T05:46:54;0.93;;;0.77;;
50379;SDS011;37474;59.468;18.040;2023-04-28T05:49:22;1.30;;;1.00;;
50379;SDS011;37474;59.468;18.040;2023-04-28T05:51:50;1.07;;;0.87;;
50379;SDS011;37474;59.468;18.040;2023-04-28T05:54:20;0.93;;;0.70;;
50379;SDS011;37474;59.468;18.040;2023-04-28T05:56:51;1.47;;;1.17;;
50379;SDS011;37474;59.468;18.040;2023-04-28T05:59:21;1.07;;;0.90;;
50379;SDS011;37474;59.468;18.040;2023-04-28T06:01:51;5.97;;;1.83;;
50379;SDS011;37474;59.468;18.040;2023-04-28T06:04:19;6.18;;;1.10;;
50379;SDS011;37474;59.468;18.040;2023-04-28T06:06:48;2.40;;;0.80;;
50379;SDS011;37474;59.468;18.040;2023-04-28T06:09:19;1.10;;;0.97;;
50379;SDS011;37474;59.468;18.040;2023-04-28T06:11:52;4.03;;;0.93;;
50379;SDS011;37474;59.468;18.040;2023-04-28T06:14:27;2.93;;;0.80;;
50379;SDS011;37474;59.468;18.040;2023-04-28T06:16:56;1.00;;;0.90;;
50379;SDS011;37474;59.468;18.040;2023-04-28T06:19:24;1.65;;;0.70;;
50379;SDS011;37474;59.468;18.040;2023-04-28T06:21:52;1.87;;;0.70;;
50379;SDS011;37474;59.468;18.040;2023-04-28T06:24:20;2.00;;;0.90;;
50379;SDS011;37474;59.468;18.040;2023-04-28T06:26:48;3.20;;;0.90;;
50379;SDS011;37474;59.468;18.040;2023-04-28T06:29:16;1.43;;;0.67;;
50379;SDS011;37474;59.468;18.040;2023-04-28T06:31:46;1.37;;;0.70;;
50379;SDS011;37474;59.468;18.040;2023-04-28T06:34:15;7.10;;;0.90;;
50379;SDS011;37474;59.468;18.040;2023-04-28T06:36:44;2.58;;;0.60;;
50379;SDS011;37474;59.468;18.040;2023-04-28T06:39:12;1.23;;;0.50;;
50379;SDS011;37474;59.468;18.040;2023-04-28T06:41:40;0.80;;;0.67;;
50379;SDS011;37474;59.468;18.040;2023-04-28T06:44:08;3.13;;;0.70;;
50379;SDS011;37474;59.468;18.040;2023-04-28T06:46:36;1.10;;;0.80;;
50379;SDS011;37474;59.468;18.040;2023-04-28T06:49:04;1.00;;;0.80;;
50379;SDS011;37474;59.468;18.040;2023-04-28T06:51:33;1.07;;;0.70;;
50379;SDS011;37474;59.468;18.040;2023-04-28T06:54:02;0.60;;;0.60;;
50379;SDS011;37474;59.468;18.040;2023-04-28T06:56:30;0.37;;;0.37;;
50379;SDS011;37474;59.468;18.040;2023-04-28T06:58:58;2.00;;;0.67;;
50379;SDS011;37474;59.468;18.040;2023-04-28T07:01:26;2.33;;;0.60;;
50379;SDS011;37474;59.468;18.040;2023-04-28T07:03:54;0.40;;;0.40;;
50379;SDS011;37474;59.468;18.040;2023-04-28T07:06:23;0.67;;;0.57;;
50379;SDS011;37474;59.468;18.040;2023-04-28T07:08:54;1.67;;;0.70;;
50379;SDS011;37474;59.468;18.040;2023-04-28T07:11:22;0.87;;;0.60;;
50379;SDS011;37474;59.468;18.040;2023-04-28T07:13:50;1.07;;;0.60;;
50379;SDS011;37474;59.468;18.040;2023-04-28T07:16:18;0.70;;;0.57;;
50379;SDS011;37474;59.468;18.040;2023-04-28T07:18:46;2.70;;;0.47;;
50379;SDS011;37474;59.468;18.040;2023-04-28T07:21:14;1.40;;;1.30;;
50379;SDS011;37474;59.468;18.040;2023-04-28T07:23:44;0.73;;;0.60;;
50379;SDS011;37474;59.468;18.040;2023-04-28T07:26:14;1.63;;;0.70;;
50379;SDS011;37474;59.468;18.040;2023-04-28T07:28:44;1.37;;;0.60;;
50379;SDS011;37474;59.468;18.040;2023-04-28T07:31:12;0.50;;;0.50;;
50379;SDS011;37474;59.468;18.040;2023-04-28T07:33:40;1.13;;;0.67;;
50379;SDS011;37474;59.468;18.040;2023-04-28T07:36:08;1.17;;;0.87;;
50379;SDS011;37474;59.468;18.040;2023-04-28T07:38:36;0.60;;;0.60;;
50379;SDS011;37474;59.468;18.040;2023-04-28T07:41:04;4.20;;;1.00;;
50379;SDS011;37474;59.468;18.040;2023-04-28T07:43:38;1.57;;;0.90;;
50379;SDS011;37474;59.468;18.040;2023-04-28T07:46:06;0.65;;;0.55;;
50379;SDS011;37474;59.468;18.040;2023-04-28T07:48:35;1.00;;;0.67;;
50379;SDS011;37474;59.468;18.040;2023-04-28T07:51:03;1.17;;;0.70;;
50379;SDS011;37474;59.468;18.040;2023-04-28T07:53:31;1.03;;;0.50;;
50379;SDS011;37474;59.468;18.040;2023-04-28T07:56:00;1.53;;;0.50;;
50379;SDS011;37474;59.468;18.040;2023-04-28T07:58:29;1.80;;;0.60;;
50379;SDS011;37474;59.468;18.040;2023-04-28T08:00:59;0.93;;;0.67;;
50379;SDS011;37474;59.468;18.040;2023-04-28T08:03:27;2.45;;;0.60;;
50379;SDS011;37474;59.468;18.040;2023-04-28T08:05:56;2.00;;;0.80;;
50379;SDS011;37474;59.468;18.040;2023-04-28T08:08:25;1.27;;;0.70;;
50379;SDS011;37474;59.468;18.040;2023-04-28T08:10:53;1.00;;;0.70;;
50379;SDS011;37474;59.468;18.040;2023-04-28T08:13:21;0.80;;;0.47;;
50379;SDS011;37474;59.468;18.040;2023-04-28T08:15:49;1.13;;;0.63;;
50379;SDS011;37474;59.468;18.040;2023-04-28T08:18:19;1.53;;;0.63;;
50379;SDS011;37474;59.468;18.040;2023-04-28T08:20:47;0.97;;;0.60;;
50379;SDS011;37474;59.468;18.040;2023-04-28T08:23:15;0.43;;;0.43;;
50379;SDS011;37474;59.468;18.040;2023-04-28T08:25:43;0.50;;;0.50;;
50379;SDS011;37474;59.468;18.040;2023-04-28T08:28:11;0.67;;;0.40;;
50379;SDS011;37474;59.468;18.040;2023-04-28T08:30:39;1.30;;;0.53;;
50379;SDS011;37474;59.468;18.040;2023-04-28T08:33:07;1.00;;;0.63;;
50379;SDS011;37474;59.468;18.040;2023-04-28T08:35:36;2.63;;;0.43;;
50379;SDS011;37474;59.468;18.040;2023-04-28T08:38:05;1.27;;;0.30;;
50379;SDS011;37474;59.468;18.040;2023-04-28T08:40:39;1.97;;;0.50;;
50379;SDS011;37474;59.468;18.040;2023-04-28T08:43:08;2.60;;;0.87;;
50379;SDS011;37474;59.468;18.040;2023-04-28T08:45:39;6.73;;;2.70;;
50379;SDS011;37474;59.468;18.040;2023-04-28T08:48:12;7.50;;;2.97;;
50379;SDS011;37474;59.468;18.040;2023-04-28T08:50:49;3.03;;;1.37;;
50379;SDS011;37474;59.468;18.040;2023-04-28T08:53:20;2.53;;;0.50;;
50379;SDS011;37474;59.468;18.040;2023-04-28T08:55:51;0.77;;;0.50;;
50379;SDS011;37474;59.468;18.040;2023-04-28T08:58:24;1.40;;;0.50;;
50379;SDS011;37474;59.468;18.040;2023-04-28T09:00:53;1.13;;;0.60;;
50379;SDS011;37474;59.468;18.040;2023-04-28T09:03:21;1.13;;;0.40;;
50379;SDS011;37474;59.468;18.040;2023-04-28T09:05:51;4.57;;;1.67;;
50379;SDS011;37474;59.468;18.040;2023-04-28T09:08:20;0.40;;;0.40;;
50379;SDS011;37474;59.468;18.040;2023-04-28T09:10:48;1.47;;;1.03;;
50379;SDS011;37474;59.468;18.040;2023-04-28T09:13:35;1.30;;;0.90;;
50379;SDS011;37474;59.468;18.040;2023-04-28T09:16:04;1.97;;;0.60;;
50379;SDS011;37474;59.468;18.040;2023-04-28T09:18:33;0.83;;;0.60;;
50379;SDS011;37474;59.468;18.040;2023-04-28T09:21:03;1.13;;;0.77;;
50379;SDS011;37474;59.468;18.040;2023-04-28T09:23:32;1.50;;;0.60;;
50379;SDS011;37474;59.468;18.040;2023-04-28T09:26:01;1.03;;;0.90;;
50379;SDS011;37474;59.468;18.040;2023-04-28T09:28:30;0.70;;;0.63;;
50379;SDS011;37474;59.468;18.040;2023-04-28T09:30:59;0.87;;;0.87;;
50379;SDS011;37474;59.468;18.040;2023-04-28T09:33:27;1.47;;;0.67;;
50379;SDS011;37474;59.468;18.040;2023-04-28T09:35:56;1.40;;;0.50;;
50379;SDS011;37474;59.468;18.040;2023-04-28T09:38:25;0.30;;;0.30;;
50379;SDS011;37474;59.468;18.040;2023-04-28T09:40:54;0.50;;;0.50;;
50379;SDS011;37474;59.468;18.040;2023-04-28T09:43:27;0.40;;;0.40;;
50379;SDS011;37474;59.468;18.040;2023-04-28T09:45:56;0.57;;;0.33;;
50379;SDS011;37474;59.468;18.040;2023-04-28T09:48:29;0.38;;;0.30;;
50379;SDS011;37474;59.468;18.040;2023-04-28T09:51:00;2.13;;;0.93;;
50379;SDS011;37474;59.468;18.040;2023-04-28T09:56:00;0.40;;;0.30;;
50379;SDS011;37474;59.468;18.040;2023-04-28T09:58:30;2.07;;;0.63;;
50379;SDS011;37474;59.468;18.040;2023-04-28T10:01:01;0.30;;;0.30;;
50379;SDS011;37474;59.468;18.040;2023-04-28T10:03:30;0.30;;;0.30;;
50379;SDS011;37474;59.468;18.040;2023-04-28T10:05:58;0.40;;;0.30;;
50379;SDS011;37474;59.468;18.040;2023-04-28T10:08:26;0.23;;;0.23;;
50379;SDS011;37474;59.468;18.040;2023-04-28T10:10:56;3.27;;;0.30;;
50379;SDS011;37474;59.468;18.040;2023-04-28T10:13:24;0.50;;;0.30;;
50379;SDS011;37474;59.468;18.040;2023-04-28T10:15:53;0.37;;;0.20;;
50379;SDS011;37474;59.468;18.040;2023-04-28T10:18:24;0.40;;;0.20;;
50379;SDS011;37474;59.468;18.040;2023-04-28T10:20:52;0.30;;;0.30;;
50379;SDS011;37474;59.468;18.040;2023-04-28T10:23:29;0.30;;;0.20;;
50379;SDS011;37474;59.468;18.040;2023-04-28T10:26:10;0.70;;;0.30;;
50379;SDS011;37474;59.468;18.040;2023-04-28T10:28:43;0.60;;;0.30;;
50379;SDS011;37474;59.468;18.040;2023-04-28T10:31:13;0.67;;;0.30;;
50379;SDS011;37474;59.468;18.040;2023-04-28T10:33:43;0.20;;;0.20;;
50379;SDS011;37474;59.468;18.040;2023-04-28T10:36:16;0.40;;;0.20;;
50379;SDS011;37474;59.468;18.040;2023-04-28T10:39:14;0.30;;;0.20;;
50379;SDS011;37474;59.468;18.040;2023-04-28T10:41:43;0.80;;;0.30;;
50379;SDS011;37474;59.468;18.040;2023-04-28T10:47:10;0.50;;;0.30;;
50379;SDS011;37474;59.468;18.040;2023-04-28T10:52:47;0.20;;;0.10;;
50379;SDS011;37474;59.468;18.040;2023-04-28T10:55:25;2.00;;;0.23;;
50379;SDS011;37474;59.468;18.040;2023-04-28T11:03:52;0.93;;;0.30;;
50379;SDS011;37474;59.468;18.040;2023-04-28T11:06:26;0.93;;;0.30;;
50379;SDS011;37474;59.468;18.040;2023-04-28T11:08:58;0.50;;;0.30;;
50379;SDS011;37474;59.468;18.040;2023-04-28T11:11:27;1.25;;;0.20;;
50379;SDS011;37474;59.468;18.040;2023-04-28T11:16:58;0.67;;;0.30;;
50379;SDS011;37474;59.468;18.040;2023-04-28T11:19:29;0.33;;;0.30;;
50379;SDS011;37474;59.468;18.040;2023-04-28T11:21:59;2.30;;;0.40;;
50379;SDS011;37474;59.468;18.040;2023-04-28T11:24:28;1.42;;;0.32;;
50379;SDS011;37474;59.468;18.040;2023-04-28T11:26:57;0.22;;;0.20;;
50379;SDS011;37474;59.468;18.040;2023-04-28T11:29:29;0.40;;;0.30;;
50379;SDS011;37474;59.468;18.040;2023-04-28T11:32:00;1.37;;;0.27;;
50379;SDS011;37474;59.468;18.040;2023-04-28T11:36:57;1.00;;;0.40;;
50379;SDS011;37474;59.468;18.040;2023-04-28T11:39:25;0.80;;;0.37;;
50379;SDS011;37474;59.468;18.040;2023-04-28T11:41:55;0.52;;;0.30;;
50379;SDS011;37474;59.468;18.040;2023-04-28T11:44:25;0.20;;;0.20;;
50379;SDS011;37474;59.468;18.040;2023-04-28T11:46:54;0.40;;;0.30;;
50379;SDS011;37474;59.468;18.040;2023-04-28T11:49:28;0.30;;;0.30;;
50379;SDS011;37474;59.468;18.040;2023-04-28T11:52:03;0.50;;;0.33;;
50379;SDS011;37474;59.468;18.040;2023-04-28T11:54:32;0.50;;;0.50;;
50379;SDS011;37474;59.468;18.040;2023-04-28T11:57:01;1.27;;;0.40;;
50379;SDS011;37474;59.468;18.040;2023-04-28T11:59:30;0.20;;;0.20;;
50379;SDS011;37474;59.468;18.040;2023-04-28T12:02:00;0.50;;;0.33;;
50379;SDS011;37474;59.468;18.040;2023-04-28T12:07:02;0.43;;;0.40;;
50379;SDS011;37474;59.468;18.040;2023-04-28T12:09:32;0.97;;;0.30;;
50379;SDS011;37474;59.468;18.040;2023-04-28T12:12:01;1.63;;;0.30;;
50379;SDS011;37474;59.468;18.040;2023-04-28T12:14:31;0.65;;;0.30;;
50379;SDS011;37474;59.468;18.040;2023-04-28T12:19:31;0.70;;;0.20;;
50379;SDS011;37474;59.468;18.040;2023-04-28T12:22:11;2.87;;;0.30;;
50379;SDS011;37474;59.468;18.040;2023-04-28T12:24:43;0.70;;;0.40;;
50379;SDS011;37474;59.468;18.040;2023-04-28T12:27:18;1.93;;;0.30;;
50379;SDS011;37474;59.468;18.040;2023-04-28T12:29:48;1.40;;;0.30;;
50379;SDS011;37474;59.468;18.040;2023-04-28T12:32:16;0.50;;;0.30;;
50379;SDS011;37474;59.468;18.040;2023-04-28T12:34:47;1.23;;;0.57;;
50379;SDS011;37474;59.468;18.040;2023-04-28T12:37:16;0.37;;;0.30;;
50379;SDS011;37474;59.468;18.040;2023-04-28T12:39:48;0.20;;;0.20;;
50379;SDS011;37474;59.468;18.040;2023-04-28T12:42:15;3.03;;;0.43;;
50379;SDS011;37474;59.468;18.040;2023-04-28T12:44:43;0.30;;;0.30;;
50379;SDS011;37474;59.468;18.040;2023-04-28T12:47:11;0.30;;;0.30;;
50379;SDS011;37474;59.468;18.040;2023-04-28T12:49:39;0.50;;;0.30;;
50379;SDS011;37474;59.468;18.040;2023-04-28T12:52:09;0.30;;;0.30;;
50379;SDS011;37474;59.468;18.040;2023-04-28T12:54:37;0.50;;;0.40;;
50379;SDS011;37474;59.468;18.040;2023-04-28T12:57:12;0.37;;;0.30;;
50379;SDS011;37474;59.468;18.040;2023-04-28T12:59:40;0.50;;;0.40;;
50379;SDS011;37474;59.468;18.040;2023-04-28T13:02:12;0.63;;;0.30;;
50379;SDS011;37474;59.468;18.040;2023-04-28T13:04:41;2.03;;;0.60;;
50379;SDS011;37474;59.468;18.040;2023-04-28T13:07:12;2.58;;;0.50;;
50379;SDS011;37474;59.468;18.040;2023-04-28T13:09:41;1.63;;;0.52;;
50379;SDS011;37474;59.468;18.040;2023-04-28T13:12:10;4.70;;;0.50;;
50379;SDS011;37474;59.468;18.040;2023-04-28T13:14:38;0.43;;;0.30;;
50379;SDS011;37474;59.468;18.040;2023-04-28T13:17:07;2.07;;;0.43;;
50379;SDS011;37474;59.468;18.040;2023-04-28T13:19:35;1.27;;;0.40;;
50379;SDS011;37474;59.468;18.040;2023-04-28T13:22:05;0.93;;;0.28;;
50379;SDS011;37474;59.468;18.040;2023-04-28T13:24:35;1.90;;;0.40;;
50379;SDS011;37474;59.468;18.040;2023-04-28T13:27:04;0.55;;;0.45;;
50379;SDS011;37474;59.468;18.040;2023-04-28T13:29:35;1.03;;;0.40;;
50379;SDS011;37474;59.468;18.040;2023-04-28T13:32:04;1.80;;;0.30;;
50379;SDS011;37474;59.468;18.040;2023-04-28T13:34:33;0.47;;;0.33;;
50379;SDS011;37474;59.468;18.040;2023-04-28T13:37:03;0.38;;;0.30;;
50379;SDS011;37474;59.468;18.040;2023-04-28T13:39:31;3.00;;;0.37;;
50379;SDS011;37474;59.468;18.040;2023-04-28T13:42:00;1.80;;;0.40;;
50379;SDS011;37474;59.468;18.040;2023-04-28T13:44:29;2.60;;;0.50;;
50379;SDS011;37474;59.468;18.040;2023-04-28T13:46:57;5.20;;;0.47;;
50379;SDS011;37474;59.468;18.040;2023-04-28T13:49:25;2.20;;;0.30;;
50379;SDS011;37474;59.468;18.040;2023-04-28T13:51:54;3.67;;;0.33;;
50379;SDS011;37474;59.468;18.040;2023-04-28T13:54:22;3.20;;;0.40;;
50379;SDS011;37474;59.468;18.040;2023-04-28T13:56:50;0.30;;;0.23;;
50379;SDS011;37474;59.468;18.040;2023-04-28T13:59:20;0.57;;;0.20;;
50379;SDS011;37474;59.468;18.040;2023-04-28T14:01:48;0.30;;;0.30;;
50379;SDS011;37474;59.468;18.040;2023-04-28T14:04:17;0.30;;;0.30;;
50379;SDS011;37474;59.468;18.040;2023-04-28T14:06:45;0.40;;;0.30;;
50379;SDS011;37474;59.468;18.040;2023-04-28T14:09:13;0.60;;;0.50;;
50379;SDS011;37474;59.468;18.040;2023-04-28T14:11:41;1.33;;;0.80;;
50379;SDS011;37474;59.468;18.040;2023-04-28T14:14:10;0.57;;;0.27;;
50379;SDS011;37474;59.468;18.040;2023-04-28T14:16:39;0.20;;;0.20;;
50379;SDS011;37474;59.468;18.040;2023-04-28T14:19:07;0.67;;;0.50;;
50379;SDS011;37474;59.468;18.040;2023-04-28T14:21:35;0.83;;;0.10;;
50379;SDS011;37474;59.468;18.040;2023-04-28T14:24:03;2.73;;;0.40;;
50379;SDS011;37474;59.468;18.040;2023-04-28T14:26:32;2.13;;;0.30;;
50379;SDS011;37474;59.468;18.040;2023-04-28T14:29:00;0.30;;;0.20;;
50379;SDS011;37474;59.468;18.040;2023-04-28T14:31:28;0.20;;;0.20;;
50379;SDS011;37474;59.468;18.040;2023-04-28T14:33:58;0.10;;;0.10;;
50379;SDS011;37474;59.468;18.040;2023-04-28T14:36:29;0.45;;;0.20;;
50379;SDS011;37474;59.468;18.040;2023-04-28T14:38:58;0.20;;;0.20;;
50379;SDS011;37474;59.468;18.040;2023-04-28T14:41:26;0.40;;;0.40;;
50379;SDS011;37474;59.468;18.040;2023-04-28T14:43:54;0.43;;;0.10;;
50379;SDS011;37474;59.468;18.040;2023-04-28T14:46:23;0.10;;;0.10;;
50379;SDS011;37474;59.468;18.040;2023-04-28T14:48:51;0.40;;;0.10;;
50379;SDS011;37474;59.468;18.040;2023-04-28T14:51:21;0.17;;;0.17;;
50379;SDS011;37474;59.468;18.040;2023-04-28T14:53:49;0.20;;;0.20;;
50379;SDS011;37474;59.468;18.040;2023-04-28T14:56:17;0.20;;;0.20;;
50379;SDS011;37474;59.468;18.040;2023-04-28T14:58:45;0.10;;;0.10;;
50379;SDS011;37474;59.468;18.040;2023-04-28T15:01:14;0.10;;;0.10;;
50379;SDS011;37474;59.468;18.040;2023-04-28T15:03:43;0.90;;;0.30;;
50379;SDS011;37474;59.468;18.040;2023-04-28T15:06:11;0.20;;;0.20;;
50379;SDS011;37474;59.468;18.040;2023-04-28T15:08:41;0.30;;;0.13;;